Time;durP1;ratioP1;P1;durP2;ratioP2;P2;SDS_P1;SDS_P2;PMS_P1;PMS_P2;Temp;Humidity;BMP_temperature;BMP_pressure;BME280_temperature;BME280_humidity;BME280_pressure;Samples;Min_cycle;Max_cycle;Signal;HPM_P1;HPM_P2
2022/03/31 00:02:04;;;;;;;29.48;5.55;;;;;;;14.00;38.14;92900.31;5064696;28;20033;-74
2022/03/31 00:04:30;;;;;;;17.23;5.30;;;;;;;14.01;38.17;92896.47;5064528;28;20223;-74
2022/03/31 00:06:55;;;;;;;17.77;4.45;;;;;;;14.03;38.22;92904.16;5064337;28;20304;-75
2022/03/31 00:09:21;;;;;;;23.92;4.20;;;;;;;14.05;38.09;92910.72;5064385;28;20035;-74
2022/03/31 00:11:46;;;;;;;29.35;5.90;;;;;;;14.05;38.09;92896.53;5064288;28;20260;-74
2022/03/31 00:14:11;;;;;;;17.13;4.68;;;;;;;14.11;38.05;92903.16;5064272;28;20025;-73
2022/03/31 00:16:37;;;;;;;16.05;4.22;;;;;;;14.04;38.36;92886.94;5064349;28;20037;-74
2022/03/31 00:19:04;;;;;;;29.73;4.25;;;;;;;14.05;38.24;92917.97;5064170;28;20088;-74
2022/03/31 00:21:29;;;;;;;24.05;6.43;;;;;;;14.04;38.66;92885.06;5064243;28;20083;-74
2022/03/31 00:23:55;;;;;;;16.85;3.97;;;;;;;13.99;38.82;92863.16;5064053;28;20025;-74
2022/03/31 00:26:20;;;;;;;34.25;5.50;;;;;;;14.02;38.72;92891.88;5064236;28;20023;-74
2022/03/31 00:28:46;;;;;;;26.88;5.05;;;;;;;13.95;38.77;92892.56;5064097;28;20307;-75
2022/03/31 00:31:11;;;;;;;23.90;5.72;;;;;;;13.85;39.11;92863.69;5063890;28;20025;-73
2022/03/31 00:33:37;;;;;;;22.25;3.83;;;;;;;13.89;39.37;92871.78;5064292;28;20032;-74
2022/03/31 00:36:02;;;;;;;15.95;4.40;;;;;;;13.86;39.00;92884.00;5063782;28;20048;-75
2022/03/31 00:38:28;;;;;;;20.00;5.18;;;;;;;13.85;39.11;92871.72;5063695;28;20383;-74
2022/03/31 00:40:53;;;;;;;12.82;3.78;;;;;;;13.85;39.13;92863.69;5063900;28;20028;-75
2022/03/31 00:43:19;;;;;;;27.25;5.30;;;;;;;13.80;39.65;92845.25;5063589;28;20058;-75
2022/03/31 00:45:47;;;;;;;21.08;5.13;;;;;;;13.78;39.50;92883.09;5063893;28;20047;-74
2022/03/31 00:48:15;;;;;;;26.17;3.97;;;;;;;13.73;39.83;92837.84;5063575;28;20060;-73
2022/03/31 00:50:41;;;;;;;19.88;4.65;;;;;;;13.72;39.41;92852.38;5063549;28;20242;-73
2022/03/31 00:53:07;;;;;;;28.27;3.78;;;;;;;13.63;40.06;92838.44;5063816;28;20061;-73
2022/03/31 00:55:34;;;;;;;17.02;3.92;;;;;;;13.65;39.92;92849.56;5063368;28;20100;-73
2022/03/31 00:58:01;;;;;;;41.72;6.13;;;;;;;13.63;40.24;92859.88;5063395;28;20045;-73
2022/03/31 01:00:26;;;;;;;20.63;4.65;;;;;;;13.61;41.05;92825.41;5063122;28;20322;-73
2022/03/31 01:02:52;;;;;;;35.63;6.93;;;;;;;13.69;40.57;92849.63;5063207;28;20025;-73
2022/03/31 01:05:18;;;;;;;21.95;6.20;;;;;;;13.76;41.20;92850.53;5063369;28;20028;-73
2022/03/31 01:07:44;;;;;;;31.15;5.40;;;;;;;13.76;41.33;92825.66;5063195;28;20021;-73
2022/03/31 01:10:12;;;;;;;29.95;4.65;;;;;;;13.75;41.48;92818.75;5063302;28;20127;-73
2022/03/31 01:12:38;;;;;;;22.65;4.95;;;;;;;13.81;41.11;92836.84;5063327;28;20027;-73
2022/03/31 01:15:06;;;;;;;41.08;5.95;;;;;;;13.89;41.59;92820.91;5063012;28;20028;-73
2022/03/31 01:17:35;;;;;;;27.67;4.93;;;;;;;13.92;40.93;92820.97;5063172;28;20055;-73
2022/03/31 01:20:02;;;;;;;28.65;4.97;;;;;;;13.94;39.73;92855.41;5063137;28;20216;-73
2022/03/31 01:22:30;;;;;;;17.85;4.57;;;;;;;13.91;41.22;92823.97;5063085;28;20030;-73
2022/03/31 01:24:57;;;;;;;17.00;3.28;;;;;;;13.92;40.32;92830.88;5063071;28;20021;-73
2022/03/31 01:27:23;;;;;;;23.63;4.60;;;;;;;13.85;40.71;92840.34;5062954;28;20044;-73
2022/03/31 01:29:49;;;;;;;23.40;6.38;;;;;;;13.91;40.29;92838.16;5062968;28;20032;-73
2022/03/31 01:32:14;;;;;;;23.52;3.72;;;;;;;13.97;40.04;92830.59;5062991;28;20266;-73
2022/03/31 01:34:39;;;;;;;21.27;4.85;;;;;;;13.98;40.15;92846.31;5062931;28;20333;-73
2022/03/31 01:37:05;;;;;;;34.55;5.40;;;;;;;14.01;39.73;92834.09;5062728;28;20032;-73
2022/03/31 01:39:31;;;;;;;25.95;5.25;;;;;;;13.94;39.84;92820.56;5062867;28;20254;-73
2022/03/31 01:41:57;;;;;;;22.63;4.35;;;;;;;13.89;39.95;92845.00;5062760;28;20032;-73
2022/03/31 01:44:23;;;;;;;15.55;4.72;;;;;;;13.90;40.00;92830.47;5062877;28;20016;-74
2022/03/31 01:46:48;;;;;;;22.65;4.10;;;;;;;13.96;39.90;92837.06;5062750;28;20020;-73
2022/03/31 01:49:14;;;;;;;16.48;4.93;;;;;;;13.94;39.80;92824.06;5062730;28;20377;-74
2022/03/31 01:51:39;;;;;;;26.60;5.32;;;;;;;13.89;40.04;92812.84;5062790;28;20017;-73
2022/03/31 01:54:05;;;;;;;21.40;4.32;;;;;;;13.76;40.04;92823.75;5062767;28;20088;-73
2022/03/31 01:56:31;;;;;;;22.45;4.93;;;;;;;13.70;42.21;92795.72;5062554;28;20048;-73
2022/03/31 01:58:57;;;;;;;29.52;5.53;;;;;;;13.73;42.88;92816.44;5062657;28;20020;-73
2022/03/31 02:01:23;;;;;;;25.25;4.55;;;;;;;13.73;41.98;92821.78;5062584;28;20032;-73
2022/03/31 02:03:48;;;;;;;27.55;5.43;;;;;;;13.75;41.69;92818.75;5062497;28;20323;-73
2022/03/31 02:06:13;;;;;;;19.95;5.05;;;;;;;13.80;41.49;92818.47;5062426;28;20017;-73
2022/03/31 02:08:39;;;;;;;18.98;4.22;;;;;;;13.74;41.01;92796.56;5062800;28;20059;-73
2022/03/31 02:11:04;;;;;;;33.42;5.60;;;;;;;13.71;41.26;92805.28;5063280;28;20028;-73
2022/03/31 02:13:30;;;;;;;23.17;4.72;;;;;;;13.65;41.42;92790.66;5066577;28;20319;-73
2022/03/31 02:15:55;;;;;;;20.65;5.13;;;;;;;13.56;43.06;92808.88;5066364;28;20032;-73
2022/03/31 02:18:21;;;;;;;28.25;4.65;;;;;;;13.68;42.15;92798.00;5066307;28;20051;-73
2022/03/31 02:20:46;;;;;;;25.23;4.38;;;;;;;13.72;41.62;92790.78;5066488;28;20029;-73
2022/03/31 02:23:12;;;;;;;14.23;3.65;;;;;;;13.73;43.29;92784.28;5066406;28;20029;-72
2022/03/31 02:25:38;;;;;;;31.15;5.57;;;;;;;13.80;43.60;92763.00;5066453;28;20326;-72
2022/03/31 02:28:04;;;;;;;23.15;4.82;;;;;;;13.90;43.30;92776.88;5066392;28;20197;-74
2022/03/31 02:30:30;;;;;;;18.20;4.85;;;;;;;13.94;41.70;92773.16;5066204;28;20025;-74
2022/03/31 02:32:59;;;;;;;19.60;5.05;;;;;;;13.91;41.14;92773.84;5066153;28;20055;-73
2022/03/31 02:35:25;;;;;;;22.60;4.20;;;;;;;13.91;40.85;92792.59;5066131;28;20029;-73
2022/03/31 02:37:50;;;;;;;23.13;4.97;;;;;;;13.86;41.02;92787.56;5066068;28;20025;-73
2022/03/31 02:40:16;;;;;;;24.52;4.93;;;;;;;13.85;42.89;92773.38;5066109;28;20031;-73
2022/03/31 02:42:41;;;;;;;32.28;5.10;;;;;;;13.91;42.79;92773.09;5066163;28;20035;-73
2022/03/31 02:45:07;;;;;;;29.95;6.97;;;;;;;13.94;42.59;92783.06;5066005;28;20029;-74
2022/03/31 02:47:34;;;;;;;18.92;4.20;;;;;;;14.02;41.95;92772.13;5065932;28;20040;-73
2022/03/31 02:50:00;;;;;;;39.45;5.43;;;;;;;13.97;43.01;92775.09;5065976;28;20024;-73
2022/03/31 02:52:25;;;;;;;37.03;6.60;;;;;;;14.08;43.57;92764.53;5065932;28;20032;-73
2022/03/31 02:57:57;;;;;;;41.33;4.25;;;;;;;14.29;42.54;92760.59;5063665;28;20045;-73
2022/03/31 03:00:22;;;;;;;27.63;5.00;;;;;;;14.35;40.92;92751.09;5063903;28;20075;-74
2022/03/31 03:02:48;;;;;;;23.25;4.50;;;;;;;14.38;39.66;92753.06;5064751;28;20033;-73
2022/03/31 03:05:14;;;;;;;34.05;4.93;;;;;;;14.26;39.65;92775.50;5065815;28;20205;-74
2022/03/31 03:07:40;;;;;;;31.38;4.47;;;;;;;14.21;40.25;92765.88;5065857;28;20253;-73
2022/03/31 03:10:05;;;;;;;19.35;4.75;;;;;;;14.17;40.41;92767.72;5065619;28;20032;-74
2022/03/31 03:12:31;;;;;;;24.65;4.93;;;;;;;14.14;40.20;92770.34;5065372;28;20044;-74
2022/03/31 03:14:57;;;;;;;19.83;4.47;;;;;;;14.08;39.89;92779.84;5065370;28;20330;-74
2022/03/31 03:17:22;;;;;;;27.38;4.07;;;;;;;13.99;39.83;92774.75;5065426;28;20084;-74
2022/03/31 03:19:48;;;;;;;21.10;5.25;;;;;;;13.96;40.33;92773.56;5065460;28;20036;-73
2022/03/31 03:22:14;;;;;;;27.38;5.25;;;;;;;13.97;40.21;92766.28;5063955;28;20029;-73
2022/03/31 03:24:39;;;;;;;24.13;5.30;;;;;;;13.93;40.14;92774.28;5065350;28;20031;-74
2022/03/31 03:27:05;;;;;;;25.38;4.43;;;;;;;13.94;40.06;92770.47;5065123;28;20024;-73
2022/03/31 03:29:31;;;;;;;19.25;5.28;;;;;;;13.82;40.00;92770.69;5065060;28;20044;-73
2022/03/31 03:31:56;;;;;;;13.73;4.35;;;;;;;13.76;39.94;92769.41;5063994;28;20035;-73
2022/03/31 03:34:22;;;;;;;22.27;4.78;;;;;;;13.65;40.23;92755.84;5065070;28;20266;-73
2022/03/31 03:36:47;;;;;;;23.20;4.43;;;;;;;13.65;40.24;92758.53;5064662;28;20365;-73
2022/03/31 03:39:13;;;;;;;28.80;4.78;;;;;;;13.62;40.06;92757.34;5065268;28;20044;-73
2022/03/31 03:41:38;;;;;;;17.52;5.05;;;;;;;13.64;40.29;92765.81;5064936;28;20323;-73
2022/03/31 03:44:04;;;;;;;23.08;4.20;;;;;;;13.55;40.19;92767.16;5064976;28;20370;-74
2022/03/31 03:46:29;;;;;;;22.10;4.88;;;;;;;13.43;40.43;92766.25;5064708;28;20204;-73
2022/03/31 03:48:55;;;;;;;23.20;5.63;;;;;;;13.38;40.76;92758.50;5064929;28;20021;-73
2022/03/31 03:51:23;;;;;;;18.00;5.13;;;;;;;13.34;41.06;92764.91;5064884;28;20232;-73
2022/03/31 03:53:48;;;;;;;27.20;6.43;;;;;;;13.21;41.10;92753.59;5064711;28;20231;-73
2022/03/31 03:56:16;;;;;;;20.95;4.63;;;;;;;13.11;41.45;92751.47;5064601;28;20051;-73
2022/03/31 03:58:41;;;;;;;27.63;4.75;;;;;;;12.96;41.37;92753.91;5064742;28;20154;-73
2022/03/31 04:01:06;;;;;;;21.70;4.78;;;;;;;12.76;41.72;92758.53;5064547;28;20024;-73
2022/03/31 04:03:32;;;;;;;21.38;5.28;;;;;;;12.56;42.42;92741.72;5064493;28;20029;-74
2022/03/31 04:05:57;;;;;;;22.13;4.78;;;;;;;12.49;42.92;92743.47;5064605;28;20024;-73
2022/03/31 04:08:23;;;;;;;21.27;5.10;;;;;;;12.50;42.89;92764.50;5064344;28;20258;-73
2022/03/31 04:10:49;;;;;;;16.75;5.03;;;;;;;12.51;42.93;92766.03;5064389;28;20031;-73
2022/03/31 04:13:14;;;;;;;19.80;4.65;;;;;;;12.52;42.70;92772.16;5064143;28;20237;-73
2022/03/31 04:15:40;;;;;;;18.20;5.47;;;;;;;12.50;42.65;92785.13;5064355;28;20239;-74
2022/03/31 04:18:07;;;;;;;21.38;5.90;;;;;;;12.53;42.97;92795.09;5064494;28;20215;-73
2022/03/31 04:20:36;;;;;;;29.27;5.90;;;;;;;12.55;42.92;92800.84;5063765;28;20315;-74
2022/03/31 04:23:01;;;;;;;17.67;5.45;;;;;;;12.55;42.77;92788.25;5063924;28;20266;-74
2022/03/31 04:25:27;;;;;;;23.42;5.20;;;;;;;12.56;42.86;92765.00;5063685;28;20020;-74
2022/03/31 04:27:53;;;;;;;26.00;5.43;;;;;;;12.50;42.86;92785.88;5063974;28;20037;-73
2022/03/31 04:30:21;;;;;;;23.60;6.20;;;;;;;12.51;43.43;92802.69;5063840;28;20056;-74
2022/03/31 04:32:47;;;;;;;25.73;6.13;;;;;;;12.48;43.24;92798.81;5063794;28;20021;-74
2022/03/31 04:35:13;;;;;;;20.58;5.50;;;;;;;12.51;43.38;92803.44;5063379;28;20214;-73
2022/03/31 04:37:39;;;;;;;18.50;5.53;;;;;;;12.47;43.76;92791.91;5063743;28;20052;-73
2022/03/31 04:40:06;;;;;;;28.75;6.45;;;;;;;12.53;45.18;92787.06;5063940;28;20055;-73
2022/03/31 04:42:31;;;;;;;26.63;5.35;;;;;;;12.57;46.93;92780.66;5063885;28;20037;-74
2022/03/31 04:44:57;;;;;;;22.02;5.63;;;;;;;12.60;48.48;92785.31;5063739;28;20043;-73
2022/03/31 04:47:23;;;;;;;24.48;6.40;;;;;;;12.58;47.37;92782.22;5063625;28;20036;-74
2022/03/31 04:49:48;;;;;;;17.60;5.80;;;;;;;12.57;47.42;92764.63;5063537;28;20320;-73
2022/03/31 04:52:14;;;;;;;20.73;6.05;;;;;;;12.53;47.26;92771.78;5063960;28;20331;-73
2022/03/31 04:54:43;;;;;;;25.30;6.38;;;;;;;12.28;47.64;92800.69;5063597;28;20036;-72
2022/03/31 04:57:11;;;;;;;23.77;5.45;;;;;;;12.18;48.89;92799.31;5063245;28;20048;-72
2022/03/31 04:59:36;;;;;;;24.00;5.45;;;;;;;12.13;50.00;92804.94;5063446;28;20041;-72
2022/03/31 05:02:02;;;;;;;21.73;5.10;;;;;;;12.12;50.81;92816.75;5063165;28;20032;-72
2022/03/31 05:04:28;;;;;;;29.00;5.60;;;;;;;11.93;49.42;92763.28;5063447;28;20078;-73
2022/03/31 05:06:54;;;;;;;20.85;6.00;;;;;;;11.93;51.53;92769.41;5063349;28;20017;-73
2022/03/31 05:09:21;;;;;;;26.48;6.47;;;;;;;11.91;50.80;92765.53;5063121;28;20025;-72
2022/03/31 05:11:47;;;;;;;24.92;5.35;;;;;;;11.98;50.94;92738.97;5062942;28;20021;-72
2022/03/31 05:14:12;;;;;;;17.65;5.22;;;;;;;11.88;49.97;92766.97;5063285;28;20053;-72
2022/03/31 05:16:37;;;;;;;26.02;6.57;;;;;;;11.74;50.71;92799.44;5063046;28;20039;-72
2022/03/31 05:19:03;;;;;;;16.90;4.53;;;;;;;11.88;50.98;92772.28;5063164;28;20025;-73
2022/03/31 05:21:29;;;;;;;28.40;5.10;;;;;;;12.06;51.19;92772.72;5063019;28;20067;-72
2022/03/31 05:23:54;;;;;;;26.17;5.00;;;;;;;12.44;50.70;92803.31;5062955;28;20093;-74
2022/03/31 05:26:20;;;;;;;34.67;5.35;;;;;;;12.71;50.38;92803.47;5062878;28;20016;-73
2022/03/31 05:28:45;;;;;;;44.00;5.43;;;;;;;12.86;50.86;92818.66;5063056;28;20021;-72
2022/03/31 05:31:11;;;;;;;26.90;4.45;;;;;;;12.97;50.77;92792.91;5063033;28;20024;-73
2022/03/31 05:33:37;;;;;;;32.92;7.07;;;;;;;13.10;51.92;92806.13;5062852;28;20041;-73
2022/03/31 05:36:02;;;;;;;32.67;5.03;;;;;;;13.18;52.65;92803.22;5062589;28;20070;-73
2022/03/31 05:38:28;;;;;;;23.98;4.70;;;;;;;13.20;52.09;92805.53;5062728;28;20195;-73
2022/03/31 05:40:54;;;;;;;17.42;4.00;;;;;;;13.15;51.77;92809.28;5062805;28;20033;-73
2022/03/31 05:43:21;;;;;;;29.52;5.43;;;;;;;13.23;53.73;92820.91;5061409;28;20366;-73
2022/03/31 05:45:47;;;;;;;24.70;3.72;;;;;;;13.23;52.87;92818.22;5061700;28;20044;-73
2022/03/31 05:48:12;;;;;;;40.08;6.00;;;;;;;13.21;53.62;92799.09;5062548;28;20215;-73
2022/03/31 05:50:38;;;;;;;25.13;4.65;;;;;;;13.20;53.32;92797.53;5062504;28;20025;-73
2022/03/31 05:53:03;;;;;;;30.17;4.85;;;;;;;13.18;54.17;92784.50;5062202;28;20096;-73
2022/03/31 05:55:29;;;;;;;27.00;4.00;;;;;;;13.22;54.06;92798.69;5062322;28;20031;-74
2022/03/31 05:57:54;;;;;;;27.30;6.68;;;;;;;13.25;53.00;92792.66;5062397;28;20052;-75
2022/03/31 06:00:21;;;;;;;30.92;6.43;;;;;;;13.31;52.87;92811.91;5062280;28;20044;-75
2022/03/31 06:02:50;;;;;;;36.00;6.07;;;;;;;13.34;50.46;92772.94;5062925;28;20283;-77
2022/03/31 06:05:18;;;;;;;36.25;6.45;;;;;;;13.41;49.79;92773.84;5062588;28;20092;-77
2022/03/31 06:07:43;;;;;;;29.98;5.78;;;;;;;13.51;50.50;92772.47;5062519;28;20228;-78
2022/03/31 06:10:09;;;;;;;27.63;6.70;;;;;;;13.63;50.51;92768.84;5062502;28;20025;-79
2022/03/31 06:12:35;;;;;;;26.98;6.07;;;;;;;13.81;51.05;92777.16;5061220;28;20048;-78
2022/03/31 06:15:07;;;;;;;39.60;7.75;;;;;;;13.95;50.46;92780.03;5062312;28;20021;-79
2022/03/31 06:17:33;;;;;;;;;;;;;;;14.06;50.16;92753.41;5062968;28;20040;-77
2022/03/31 06:19:59;;;;;;;37.85;6.88;;;;;;;14.13;50.44;92769.59;5062384;28;19905;-77
2022/03/31 06:22:25;;;;;;;33.20;5.70;;;;;;;14.28;50.46;92777.81;5062398;28;20377;-77
2022/03/31 06:24:50;;;;;;;35.40;6.05;;;;;;;14.32;50.25;92774.06;5062396;28;20047;-77
2022/03/31 06:27:16;;;;;;;40.13;6.45;;;;;;;14.37;50.55;92763.03;5062575;28;20036;-77
2022/03/31 06:29:45;;;;;;;37.80;7.40;;;;;;;14.49;50.02;92793.41;5062420;28;20031;-77
2022/03/31 06:32:12;;;;;;;35.47;5.05;;;;;;;14.59;49.94;92812.38;5062300;28;20020;-81
2022/03/31 06:34:38;;;;;;;37.60;6.32;;;;;;;14.74;50.09;92796.47;5062145;28;20036;-78
2022/03/31 06:37:04;;;;;;;38.38;6.68;;;;;;;14.81;48.55;92802.66;5062205;28;20088;-77
2022/03/31 06:39:29;;;;;;;33.00;5.25;;;;;;;14.87;47.75;92792.38;5062142;28;20036;-77
2022/03/31 06:41:55;;;;;;;35.08;6.63;;;;;;;14.88;47.02;92766.31;5062076;28;20031;-81
2022/03/31 06:44:21;;;;;;;22.42;4.30;;;;;;;14.90;46.85;92788.19;5062022;28;20120;-81
2022/03/31 06:46:47;;;;;;;33.50;5.78;;;;;;;14.87;46.04;92784.34;5062321;28;20017;-80
2022/03/31 06:49:13;;;;;;;33.60;5.43;;;;;;;14.79;45.92;92770.06;5062179;28;20055;-78
2022/03/31 06:51:38;;;;;;;30.42;4.80;;;;;;;14.91;46.63;92762.94;5062188;28;20029;-78
2022/03/31 06:54:04;;;;;;;44.58;5.13;;;;;;;14.89;45.85;92749.09;5061998;28;20032;-77
2022/03/31 06:56:32;;;;;;;41.17;5.03;;;;;;;14.87;46.62;92729.94;5061671;28;20255;-77
2022/03/31 06:58:59;;;;;;;40.83;5.15;;;;;;;14.84;46.04;92742.16;5065755;28;20033;-77
2022/03/31 07:01:25;;;;;;;29.10;7.13;;;;;;;14.83;46.09;92764.75;5065779;28;20028;-77
2022/03/31 07:03:51;;;;;;;24.38;3.72;;;;;;;14.87;46.98;92746.03;5064154;28;20028;-77
2022/03/31 07:06:18;;;;;;;30.52;4.88;;;;;;;14.77;45.38;92775.03;5065515;28;20025;-77
2022/03/31 07:08:43;;;;;;;27.08;4.63;;;;;;;14.79;45.01;92767.38;5065796;28;20247;-78
2022/03/31 07:11:10;;;;;;;29.10;5.57;;;;;;;14.76;45.51;92751.28;5065469;28;20028;-75
2022/03/31 07:13:36;;;;;;;39.03;7.70;;;;;;;14.81;45.34;92732.91;5065576;28;20197;-75
2022/03/31 07:16:02;;;;;;;33.97;4.95;;;;;;;14.84;45.93;92764.38;5065228;28;20070;-76
2022/03/31 07:18:27;;;;;;;37.08;8.02;;;;;;;14.78;45.76;92770.47;5097615;28;20251;-74
2022/03/31 07:20:53;;;;;;;35.33;7.40;;;;;;;14.69;44.84;92740.44;5065234;28;20020;-76
2022/03/31 07:23:21;;;;;;;22.23;5.35;;;;;;;14.72;45.52;92771.91;5065630;28;20049;-76
2022/03/31 07:25:47;;;;;;;45.47;5.45;;;;;;;14.68;45.34;92755.78;5065385;28;20017;-74
2022/03/31 07:28:14;;;;;;;32.92;6.18;;;;;;;14.70;44.81;92752.72;5064117;28;20033;-75
2022/03/31 07:30:39;;;;;;;39.20;5.00;;;;;;;14.76;45.03;92713.72;5064819;28;20052;-75
2022/03/31 07:33:05;;;;;;;21.55;5.03;;;;;;;14.69;44.81;92724.34;5065065;28;20270;-76
2022/03/31 07:35:33;;;;;;;46.83;5.65;;;;;;;14.82;45.22;92736.41;5065144;28;20025;-76
2022/03/31 07:37:59;;;;;;;30.27;4.82;;;;;;;14.87;44.94;92730.69;5065129;28;20021;-76
2022/03/31 07:40:26;;;;;;;41.13;5.22;;;;;;;14.91;44.61;92736.09;5064946;28;20021;-75
2022/03/31 07:42:53;;;;;;;23.33;4.28;;;;;;;14.98;44.40;92733.47;5065057;28;20215;-75
2022/03/31 07:45:19;;;;;;;31.05;5.22;;;;;;;14.96;44.50;92733.88;5065258;28;20013;-76
2022/03/31 07:47:44;;;;;;;38.42;4.93;;;;;;;14.94;44.64;92709.31;5065204;28;20315;-75
2022/03/31 07:50:13;;;;;;;39.20;6.90;;;;;;;14.83;45.28;92703.81;5064891;28;20028;-74
2022/03/31 07:52:40;;;;;;;35.47;6.57;;;;;;;14.93;45.19;92712.34;5064831;28;20063;-77
2022/03/31 07:55:07;;;;;;;28.85;5.03;;;;;;;15.01;44.88;92722.78;5064850;28;20078;-78
2022/03/31 07:57:33;;;;;;;25.90;4.22;;;;;;;14.94;44.89;92730.78;5064666;28;20041;-75
2022/03/31 07:59:59;;;;;;;29.83;4.28;;;;;;;14.97;44.93;92762.22;5064855;28;20045;-75
2022/03/31 08:02:25;;;;;;;32.08;6.82;;;;;;;15.18;43.98;92740.22;5064650;28;20028;-75
2022/03/31 08:04:51;;;;;;;34.88;6.45;;;;;;;15.34;43.58;92748.03;5064717;28;20024;-78
2022/03/31 08:07:17;;;;;;;28.40;5.13;;;;;;;15.56;43.35;92714.06;5064919;28;20031;-77
2022/03/31 08:09:42;;;;;;;42.88;5.65;;;;;;;15.82;42.87;92715.06;5063563;28;20013;-76
2022/03/31 08:12:08;;;;;;;44.30;5.43;;;;;;;15.90;42.77;92758.88;5064541;28;20025;-77
2022/03/31 08:14:34;;;;;;;22.35;5.18;;;;;;;15.89;43.05;92738.53;5064359;28;20020;-75
2022/03/31 08:17:00;;;;;;;40.35;5.57;;;;;;;16.00;42.32;92753.56;5064350;28;20199;-75
2022/03/31 08:19:29;;;;;;;43.85;7.20;;;;;;;16.11;42.19;92747.50;5063359;28;20210;-76
2022/03/31 08:21:56;;;;;;;34.03;5.18;;;;;;;16.13;42.38;92729.09;5064191;28;20025;-75
2022/03/31 08:24:22;;;;;;;38.10;5.85;;;;;;;16.31;42.30;92715.75;5064203;28;20029;-74
2022/03/31 08:26:50;;;;;;;37.00;5.75;;;;;;;16.50;41.57;92712.75;5064363;28;20087;-74
2022/03/31 08:29:16;;;;;;;26.73;4.45;;;;;;;16.68;41.04;92691.31;5064248;28;20021;-75
2022/03/31 08:31:42;;;;;;;46.78;5.97;;;;;;;16.78;40.34;92677.09;5064064;28;20025;-74
2022/03/31 08:34:07;;;;;;;54.28;6.25;;;;;;;16.77;40.41;92666.72;5064170;28;20088;-76
2022/03/31 08:36:33;;;;;;;36.63;6.90;;;;;;;16.85;40.30;92676.38;5063911;28;20219;-75
2022/03/31 08:38:58;;;;;;;45.60;7.88;;;;;;;16.86;40.00;92688.69;5064174;28;20093;-75
2022/03/31 08:41:26;;;;;;;36.03;5.35;;;;;;;16.82;39.98;92632.16;5063800;28;20215;-74
2022/03/31 08:43:51;;;;;;;37.80;8.32;;;;;;;16.82;39.98;92632.16;5063762;28;20021;-75
2022/03/31 08:46:18;;;;;;;25.10;4.85;;;;;;;16.82;39.88;92680.59;5063955;28;20063;-74
2022/03/31 08:48:44;;;;;;;47.60;6.03;;;;;;;16.87;39.88;92682.16;5063907;28;20035;-74
2022/03/31 08:51:09;;;;;;;48.90;6.88;;;;;;;16.96;39.40;92663.72;5063693;28;20028;-74
2022/03/31 08:53:35;;;;;;;34.22;4.88;;;;;;;17.08;39.83;92686.06;5063640;28;20063;-75
2022/03/31 08:56:02;;;;;;;35.60;5.45;;;;;;;17.16;39.33;92685.69;5063445;28;20028;-76
2022/03/31 08:58:27;;;;;;;32.65;4.47;;;;;;;17.30;39.26;92697.59;5063423;28;20043;-77
2022/03/31 09:00:53;;;;;;;34.90;4.50;;;;;;;17.35;38.74;92702.63;5063682;28;20029;-77
2022/03/31 09:03:19;;;;;;;20.95;4.93;;;;;;;17.38;38.99;92699.94;5063731;28;20235;-76
2022/03/31 09:05:49;;;;;;;25.83;6.13;;;;;;;17.35;39.27;92684.53;5063668;28;20051;-75
2022/03/31 09:08:16;;;;;;;28.15;5.07;;;;;;;17.43;39.24;92677.25;5063594;28;20028;-76
2022/03/31 09:10:52;;;;;;;33.03;6.40;;;;;;;17.53;39.03;92660.31;5063193;28;20231;-75
2022/03/31 09:13:25;;;;;;;25.10;4.72;;;;;;;17.67;38.52;92688.38;5063388;28;20105;-75
2022/03/31 09:15:52;;;;;;;24.13;3.88;;;;;;;17.63;38.82;92685.72;5063346;28;20020;-75
2022/03/31 09:18:21;;;;;;;30.48;5.20;;;;;;;17.39;39.09;92712.25;5063447;28;20036;-74
2022/03/31 09:20:49;;;;;;;34.10;6.13;;;;;;;17.13;40.04;92685.66;5063190;28;20362;-76
2022/03/31 09:23:19;;;;;;;36.30;5.80;;;;;;;17.01;40.13;92698.31;5063206;28;20040;-76
2022/03/31 09:25:46;;;;;;;24.77;4.10;;;;;;;17.05;40.08;92682.94;5063162;28;20009;-75
2022/03/31 09:28:23;;;;;;;23.25;5.05;;;;;;;17.11;40.00;92650.28;5062916;28;20025;-77
2022/03/31 09:30:51;;;;;;;37.33;4.95;;;;;;;16.88;40.58;92661.41;5063455;28;20017;-76
2022/03/31 09:33:33;;;;;;;31.38;4.25;;;;;;;16.76;40.69;92632.91;5063112;28;20027;-76
2022/03/31 09:36:00;;;;;;;;;;;;;;;16.83;40.80;92649.06;5063259;28;20208;-76
2022/03/31 09:38:26;;;;;;;22.40;4.07;;;;;;;16.79;40.98;92619.47;5063082;28;19984;-76
2022/03/31 09:40:52;;;;;;;34.92;3.75;;;;;;;16.87;40.68;92633.72;5062995;28;20195;-74
2022/03/31 09:43:18;;;;;;;29.70;5.60;;;;;;;17.01;40.65;92604.13;5062964;28;20024;-73
2022/03/31 09:45:44;;;;;;;28.65;3.95;;;;;;;16.98;40.76;92591.44;5062427;28;20016;-76
2022/03/31 09:48:23;;;;;;;37.70;4.32;;;;;;;17.07;40.85;92599.13;5062499;28;20065;-75
2022/03/31 09:50:49;;;;;;;30.20;4.75;;;;;;;17.05;40.88;92623.72;5061491;28;20036;-77
2022/03/31 09:53:16;;;;;;;21.80;3.58;;;;;;;17.16;40.57;92612.22;5062605;28;20311;-77
2022/03/31 09:55:43;;;;;;;28.83;4.20;;;;;;;17.18;40.17;92615.31;5062461;28;20223;-77
2022/03/31 09:58:18;;;;;;;31.42;4.78;;;;;;;17.21;40.07;92599.13;5062301;28;20048;-76
2022/03/31 10:00:45;;;;;;;33.83;4.15;;;;;;;17.30;39.86;92633.78;5062442;28;20141;-77
2022/03/31 10:03:15;;;;;;;24.90;4.90;;;;;;;17.23;40.15;92618.34;5062490;28;20025;-77
2022/03/31 10:05:42;;;;;;;32.65;5.28;;;;;;;17.39;39.74;92636.06;5062642;28;20051;-76
2022/03/31 10:08:12;;;;;;;35.67;4.72;;;;;;;17.65;39.44;92616.03;5062515;28;20080;-77
2022/03/31 10:10:38;;;;;;;27.05;4.57;;;;;;;17.49;38.99;92621.06;5062293;28;20021;-76
2022/03/31 10:13:13;;;;;;;25.05;5.00;;;;;;;17.58;38.83;92632.19;5062475;28;20028;-75
2022/03/31 10:15:41;;;;;;;29.48;3.97;;;;;;;17.78;39.04;92594.84;5062360;28;20203;-78
2022/03/31 10:18:06;;;;;;;22.67;4.18;;;;;;;17.61;38.61;92634.13;5062509;28;20062;-75
2022/03/31 10:20:32;;;;;;;27.52;6.22;;;;;;;17.64;38.81;92612.56;5062180;28;20044;-77
2022/03/31 10:25:49;;;;;;;28.65;5.85;;;;;;;17.66;38.70;92582.53;5062490;28;20020;-78
2022/03/31 10:28:18;;;;;;;26.40;4.28;;;;;;;17.65;39.25;92602.56;5062331;28;20017;-76
2022/03/31 10:30:59;;;;;;;37.95;5.50;;;;;;;17.53;39.33;92592.97;5065865;28;20140;-75
2022/03/31 10:33:51;;;;;;;32.40;4.43;;;;;;;17.65;38.99;92607.94;5066080;28;20246;-81
2022/03/31 10:36:19;;;;;;;40.30;5.53;;;;;;;17.74;38.93;92586.75;5066172;28;20025;-79
2022/03/31 10:38:59;;;;;;;30.60;4.50;;;;;;;17.91;38.57;92601.38;5066401;28;20028;-79
2022/03/31 10:41:32;;;;;;;31.52;5.60;;;;;;;18.06;38.04;92574.38;5066658;28;20024;-76
2022/03/31 10:43:58;;;;;;;25.58;5.30;;;;;;;18.05;38.26;92595.16;5064726;28;20250;-76
2022/03/31 10:46:25;;;;;;;33.38;6.30;;;;;;;18.00;38.31;92590.19;5065735;28;20037;-76
2022/03/31 10:48:56;;;;;;;25.10;5.63;;;;;;;18.00;38.38;92579.41;5066466;28;20212;-75
2022/03/31 10:51:36;;;;;;;26.58;3.97;;;;;;;18.05;38.15;92568.19;5065908;28;20120;-77
2022/03/31 10:54:03;;;;;;;27.27;4.53;;;;;;;17.97;38.38;92555.91;5065590;28;20024;-78
2022/03/31 10:56:31;;;;;;;27.40;3.95;;;;;;;18.06;38.44;92567.06;5065214;28;20327;-77
2022/03/31 10:58:58;;;;;;;35.90;5.65;;;;;;;18.23;37.77;92579.69;5065655;28;20246;-74
2022/03/31 11:01:29;;;;;;;32.33;5.38;;;;;;;18.54;38.58;92603.44;5065560;28;20255;-76
2022/03/31 11:04:01;;;;;;;30.10;5.63;;;;;;;18.77;37.37;92622.59;5064376;28;20025;-76
2022/03/31 11:06:27;;;;;;;27.80;5.75;;;;;;;18.85;37.32;92569.38;5065419;28;20021;-73
2022/03/31 11:08:52;;;;;;;23.60;4.50;;;;;;;19.04;37.15;92582.31;5065699;28;20234;-74
2022/03/31 11:11:28;;;;;;;28.45;5.82;;;;;;;19.14;36.71;92596.91;5065445;28;20082;-73
2022/03/31 11:13:55;;;;;;;30.67;5.00;;;;;;;19.00;36.82;92576.19;5065197;28;20017;-73
2022/03/31 11:16:22;;;;;;;21.17;5.10;;;;;;;18.81;36.74;92553.19;5065363;28;20033;-74
2022/03/31 11:18:57;;;;;;;35.78;7.05;;;;;;;18.68;37.25;92589.84;5065162;28;20151;-73
2022/03/31 11:21:34;;;;;;;38.53;5.82;;;;;;;18.73;37.32;92572.50;5065206;28;20036;-72
2022/03/31 11:23:59;;;;;;;25.13;4.80;;;;;;;18.81;37.30;92577.47;5064911;28;20028;-72
2022/03/31 11:26:28;;;;;;;30.65;5.43;;;;;;;18.67;37.50;92552.50;5064992;28;20044;-74
2022/03/31 11:28:55;;;;;;;27.33;5.38;;;;;;;18.40;38.06;92566.53;5065131;28;20032;-72
2022/03/31 11:31:21;;;;;;;22.67;4.00;;;;;;;17.99;39.01;92588.63;5065012;28;20302;-75